sensor_id;sensor_type;location;lat;lon;timestamp;P1;durP1;ratioP1;P2;durP2;ratioP2
23747;SDS011;12054;53.662;10.126;2023-04-03T00:01:23;5.05;;;1.65;;
23747;SDS011;12054;53.662;10.126;2023-04-03T00:03:49;6.28;;;2.00;;
23747;SDS011;12054;53.662;10.126;2023-04-03T00:06:15;4.85;;;1.65;;
23747;SDS011;12054;53.662;10.126;2023-04-03T00:08:40;4.50;;;1.80;;
23747;SDS011;12054;53.662;10.126;2023-04-03T00:11:06;5.63;;;1.65;;
23747;SDS011;12054;53.662;10.126;2023-04-03T00:13:33;2.40;;;1.80;;
23747;SDS011;12054;53.662;10.126;2023-04-03T00:15:59;3.15;;;1.70;;
23747;SDS011;12054;53.662;10.126;2023-04-03T00:18:25;3.65;;;1.70;;
23747;SDS011;12054;53.662;10.126;2023-04-03T00:20:51;4.70;;;2.10;;
23747;SDS011;12054;53.662;10.126;2023-04-03T00:23:16;5.72;;;1.85;;
23747;SDS011;12054;53.662;10.126;2023-04-03T00:25:42;5.68;;;2.70;;
23747;SDS011;12054;53.662;10.126;2023-04-03T00:28:08;7.10;;;2.10;;
23747;SDS011;12054;53.662;10.126;2023-04-03T00:30:34;4.50;;;1.90;;
23747;SDS011;12054;53.662;10.126;2023-04-03T00:33:00;5.50;;;2.50;;
23747;SDS011;12054;53.662;10.126;2023-04-03T00:35:26;5.80;;;2.25;;
23747;SDS011;12054;53.662;10.126;2023-04-03T00:37:53;5.43;;;2.38;;
23747;SDS011;12054;53.662;10.126;2023-04-03T00:40:20;6.28;;;2.67;;
23747;SDS011;12054;53.662;10.126;2023-04-03T00:42:49;4.90;;;2.20;;
23747;SDS011;12054;53.662;10.126;2023-04-03T00:45:25;4.25;;;1.98;;
23747;SDS011;12054;53.662;10.126;2023-04-03T00:47:58;4.93;;;2.00;;
23747;SDS011;12054;53.662;10.126;2023-04-03T00:50:27;7.78;;;2.15;;
23747;SDS011;12054;53.662;10.126;2023-04-03T00:52:54;3.85;;;1.63;;
23747;SDS011;12054;53.662;10.126;2023-04-03T00:55:20;5.28;;;1.88;;
23747;SDS011;12054;53.662;10.126;2023-04-03T00:57:46;3.80;;;1.83;;
23747;SDS011;12054;53.662;10.126;2023-04-03T01:00:13;5.30;;;2.00;;
23747;SDS011;12054;53.662;10.126;2023-04-03T01:02:42;4.90;;;2.17;;
23747;SDS011;12054;53.662;10.126;2023-04-03T01:05:07;4.88;;;2.20;;
23747;SDS011;12054;53.662;10.126;2023-04-03T01:07:34;4.57;;;1.98;;
23747;SDS011;12054;53.662;10.126;2023-04-03T01:10:03;4.07;;;2.30;;
23747;SDS011;12054;53.662;10.126;2023-04-03T01:12:33;4.95;;;2.50;;
23747;SDS011;12054;53.662;10.126;2023-04-03T01:15:01;5.28;;;2.30;;
23747;SDS011;12054;53.662;10.126;2023-04-03T01:17:48;4.28;;;2.17;;
23747;SDS011;12054;53.662;10.126;2023-04-03T01:20:43;4.03;;;1.73;;
23747;SDS011;12054;53.662;10.126;2023-04-03T01:23:30;3.80;;;1.52;;
23747;SDS011;12054;53.662;10.126;2023-04-03T01:26:00;5.57;;;2.13;;
23747;SDS011;12054;53.662;10.126;2023-04-03T01:28:30;3.63;;;1.63;;
23747;SDS011;12054;53.662;10.126;2023-04-03T01:33:31;5.57;;;2.08;;
23747;SDS011;12054;53.662;10.126;2023-04-03T01:35:57;4.60;;;2.15;;
23747;SDS011;12054;53.662;10.126;2023-04-03T01:38:23;3.35;;;1.92;;
23747;SDS011;12054;53.662;10.126;2023-04-03T01:40:48;6.47;;;2.13;;
23747;SDS011;12054;53.662;10.126;2023-04-03T01:43:14;5.03;;;1.98;;
23747;SDS011;12054;53.662;10.126;2023-04-03T01:45:39;3.00;;;1.70;;
23747;SDS011;12054;53.662;10.126;2023-04-03T01:48:05;6.50;;;2.20;;
23747;SDS011;12054;53.662;10.126;2023-04-03T01:50:31;3.88;;;1.52;;
23747;SDS011;12054;53.662;10.126;2023-04-03T01:52:56;5.18;;;2.08;;
23747;SDS011;12054;53.662;10.126;2023-04-03T01:55:22;5.45;;;1.90;;
23747;SDS011;12054;53.662;10.126;2023-04-03T01:57:47;3.00;;;1.92;;
23747;SDS011;12054;53.662;10.126;2023-04-03T02:00:13;3.58;;;1.65;;
23747;SDS011;12054;53.662;10.126;2023-04-03T02:02:39;2.95;;;1.73;;
23747;SDS011;12054;53.662;10.126;2023-04-03T02:05:05;6.18;;;2.08;;
23747;SDS011;12054;53.662;10.126;2023-04-03T02:07:31;4.18;;;2.13;;
23747;SDS011;12054;53.662;10.126;2023-04-03T02:09:56;4.75;;;2.10;;
23747;SDS011;12054;53.662;10.126;2023-04-03T02:12:22;6.28;;;1.80;;
23747;SDS011;12054;53.662;10.126;2023-04-03T02:14:47;4.38;;;2.10;;
23747;SDS011;12054;53.662;10.126;2023-04-03T02:17:12;6.30;;;2.10;;
23747;SDS011;12054;53.662;10.126;2023-04-03T02:19:38;4.57;;;2.20;;
23747;SDS011;12054;53.662;10.126;2023-04-03T02:22:04;3.88;;;1.92;;
23747;SDS011;12054;53.662;10.126;2023-04-03T02:24:30;2.40;;;1.60;;
23747;SDS011;12054;53.662;10.126;2023-04-03T02:26:56;5.22;;;2.20;;
23747;SDS011;12054;53.662;10.126;2023-04-03T02:29:22;4.00;;;2.00;;
23747;SDS011;12054;53.662;10.126;2023-04-03T02:31:48;10.02;;;2.15;;
23747;SDS011;12054;53.662;10.126;2023-04-03T02:34:13;5.65;;;2.10;;
23747;SDS011;12054;53.662;10.126;2023-04-03T02:36:39;4.20;;;2.13;;
23747;SDS011;12054;53.662;10.126;2023-04-03T02:39:05;4.22;;;1.90;;
23747;SDS011;12054;53.662;10.126;2023-04-03T02:41:30;3.70;;;1.83;;
23747;SDS011;12054;53.662;10.126;2023-04-03T02:44:04;6.18;;;1.80;;
23747;SDS011;12054;53.662;10.126;2023-04-03T02:46:33;3.88;;;1.77;;
23747;SDS011;12054;53.662;10.126;2023-04-03T02:48:59;6.57;;;2.10;;
23747;SDS011;12054;53.662;10.126;2023-04-03T02:51:24;6.97;;;2.10;;
23747;SDS011;12054;53.662;10.126;2023-04-03T02:53:50;5.30;;;1.88;;
23747;SDS011;12054;53.662;10.126;2023-04-03T02:56:16;4.38;;;1.70;;
23747;SDS011;12054;53.662;10.126;2023-04-03T02:58:43;6.97;;;1.90;;
23747;SDS011;12054;53.662;10.126;2023-04-03T03:01:09;6.32;;;2.15;;
23747;SDS011;12054;53.662;10.126;2023-04-03T03:03:34;3.65;;;1.58;;
23747;SDS011;12054;53.662;10.126;2023-04-03T03:06:01;3.33;;;1.70;;
23747;SDS011;12054;53.662;10.126;2023-04-03T03:08:28;5.75;;;2.15;;
23747;SDS011;12054;53.662;10.126;2023-04-03T03:10:53;4.05;;;1.67;;
23747;SDS011;12054;53.662;10.126;2023-04-03T03:13:19;6.82;;;1.83;;
23747;SDS011;12054;53.662;10.126;2023-04-03T03:15:45;4.05;;;1.83;;
23747;SDS011;12054;53.662;10.126;2023-04-03T03:18:10;3.42;;;1.73;;
23747;SDS011;12054;53.662;10.126;2023-04-03T03:20:35;3.75;;;1.90;;
23747;SDS011;12054;53.662;10.126;2023-04-03T03:23:01;3.53;;;1.80;;
23747;SDS011;12054;53.662;10.126;2023-04-03T03:25:27;3.97;;;2.10;;
23747;SDS011;12054;53.662;10.126;2023-04-03T03:27:52;4.72;;;1.73;;
23747;SDS011;12054;53.662;10.126;2023-04-03T03:30:17;5.13;;;1.90;;
23747;SDS011;12054;53.662;10.126;2023-04-03T03:32:43;4.65;;;1.95;;
23747;SDS011;12054;53.662;10.126;2023-04-03T03:35:08;3.35;;;1.92;;
23747;SDS011;12054;53.662;10.126;2023-04-03T03:37:34;3.67;;;1.90;;
23747;SDS011;12054;53.662;10.126;2023-04-03T03:40:00;4.05;;;1.63;;
23747;SDS011;12054;53.662;10.126;2023-04-03T03:42:25;4.40;;;2.20;;
23747;SDS011;12054;53.662;10.126;2023-04-03T03:44:51;3.63;;;2.25;;
23747;SDS011;12054;53.662;10.126;2023-04-03T03:47:17;6.57;;;2.33;;
23747;SDS011;12054;53.662;10.126;2023-04-03T03:49:43;4.25;;;2.25;;
23747;SDS011;12054;53.662;10.126;2023-04-03T03:52:09;6.25;;;2.00;;
23747;SDS011;12054;53.662;10.126;2023-04-03T03:54:35;2.58;;;1.88;;
23747;SDS011;12054;53.662;10.126;2023-04-03T03:57:02;7.82;;;2.08;;
23747;SDS011;12054;53.662;10.126;2023-04-03T03:59:27;4.35;;;1.63;;
23747;SDS011;12054;53.662;10.126;2023-04-03T04:01:53;3.72;;;2.13;;
23747;SDS011;12054;53.662;10.126;2023-04-03T04:04:18;2.63;;;1.73;;
23747;SDS011;12054;53.662;10.126;2023-04-03T04:06:44;3.83;;;1.92;;
23747;SDS011;12054;53.662;10.126;2023-04-03T04:09:10;4.55;;;1.70;;
23747;SDS011;12054;53.662;10.126;2023-04-03T04:11:36;2.92;;;1.73;;
23747;SDS011;12054;53.662;10.126;2023-04-03T04:14:02;2.78;;;1.60;;
23747;SDS011;12054;53.662;10.126;2023-04-03T04:16:27;4.43;;;2.10;;
23747;SDS011;12054;53.662;10.126;2023-04-03T04:18:53;5.78;;;2.03;;
23747;SDS011;12054;53.662;10.126;2023-04-03T04:21:18;3.90;;;2.05;;
23747;SDS011;12054;53.662;10.126;2023-04-03T04:23:44;3.92;;;1.90;;
23747;SDS011;12054;53.662;10.126;2023-04-03T04:26:09;4.63;;;2.03;;
23747;SDS011;12054;53.662;10.126;2023-04-03T04:28:35;5.10;;;1.50;;
23747;SDS011;12054;53.662;10.126;2023-04-03T04:31:00;4.18;;;1.90;;
23747;SDS011;12054;53.662;10.126;2023-04-03T04:33:26;1.95;;;1.75;;
23747;SDS011;12054;53.662;10.126;2023-04-03T04:35:51;4.60;;;1.95;;
23747;SDS011;12054;53.662;10.126;2023-04-03T04:38:17;5.45;;;2.20;;
23747;SDS011;12054;53.662;10.126;2023-04-03T04:40:42;4.82;;;1.80;;
23747;SDS011;12054;53.662;10.126;2023-04-03T04:43:08;4.60;;;1.85;;
23747;SDS011;12054;53.662;10.126;2023-04-03T04:45:35;7.28;;;2.00;;
23747;SDS011;12054;53.662;10.126;2023-04-03T04:48:01;5.65;;;1.75;;
23747;SDS011;12054;53.662;10.126;2023-04-03T04:50:26;3.53;;;2.00;;
23747;SDS011;12054;53.662;10.126;2023-04-03T04:52:52;3.70;;;2.03;;
23747;SDS011;12054;53.662;10.126;2023-04-03T04:55:17;3.10;;;2.03;;
23747;SDS011;12054;53.662;10.126;2023-04-03T04:57:43;5.85;;;2.00;;
23747;SDS011;12054;53.662;10.126;2023-04-03T05:00:08;3.78;;;2.13;;
23747;SDS011;12054;53.662;10.126;2023-04-03T05:02:34;3.08;;;1.92;;
23747;SDS011;12054;53.662;10.126;2023-04-03T05:05:00;4.03;;;1.90;;
23747;SDS011;12054;53.662;10.126;2023-04-03T05:07:25;7.07;;;2.50;;
23747;SDS011;12054;53.662;10.126;2023-04-03T05:09:51;5.72;;;2.83;;
23747;SDS011;12054;53.662;10.126;2023-04-03T05:12:16;4.22;;;2.45;;
23747;SDS011;12054;53.662;10.126;2023-04-03T05:14:43;7.10;;;2.80;;
23747;SDS011;12054;53.662;10.126;2023-04-03T05:17:11;6.22;;;2.45;;
23747;SDS011;12054;53.662;10.126;2023-04-03T05:19:37;4.93;;;2.50;;
23747;SDS011;12054;53.662;10.126;2023-04-03T05:22:02;9.57;;;3.28;;
23747;SDS011;12054;53.662;10.126;2023-04-03T05:24:28;5.22;;;2.45;;
23747;SDS011;12054;53.662;10.126;2023-04-03T05:26:53;3.90;;;2.50;;
23747;SDS011;12054;53.662;10.126;2023-04-03T05:29:19;6.78;;;2.75;;
23747;SDS011;12054;53.662;10.126;2023-04-03T05:31:45;6.25;;;4.63;;
23747;SDS011;12054;53.662;10.126;2023-04-03T05:34:10;6.45;;;4.32;;
23747;SDS011;12054;53.662;10.126;2023-04-03T05:36:36;5.43;;;3.53;;
23747;SDS011;12054;53.662;10.126;2023-04-03T05:39:02;7.72;;;3.50;;
23747;SDS011;12054;53.662;10.126;2023-04-03T05:41:28;6.82;;;3.00;;
23747;SDS011;12054;53.662;10.126;2023-04-03T05:43:54;6.95;;;2.55;;
23747;SDS011;12054;53.662;10.126;2023-04-03T05:46:19;5.45;;;2.92;;
23747;SDS011;12054;53.662;10.126;2023-04-03T05:48:46;6.75;;;3.30;;
23747;SDS011;12054;53.662;10.126;2023-04-03T05:51:15;9.93;;;3.45;;
23747;SDS011;12054;53.662;10.126;2023-04-03T05:53:46;6.05;;;2.90;;
23747;SDS011;12054;53.662;10.126;2023-04-03T05:56:13;6.25;;;3.20;;
23747;SDS011;12054;53.662;10.126;2023-04-03T05:58:39;5.38;;;2.60;;
23747;SDS011;12054;53.662;10.126;2023-04-03T06:01:04;9.80;;;3.40;;
23747;SDS011;12054;53.662;10.126;2023-04-03T06:03:30;5.38;;;3.33;;
23747;SDS011;12054;53.662;10.126;2023-04-03T06:05:56;7.57;;;3.90;;
23747;SDS011;12054;53.662;10.126;2023-04-03T06:08:22;7.53;;;3.70;;
23747;SDS011;12054;53.662;10.126;2023-04-03T06:10:48;9.88;;;3.63;;
23747;SDS011;12054;53.662;10.126;2023-04-03T06:13:15;9.85;;;4.28;;
23747;SDS011;12054;53.662;10.126;2023-04-03T06:15:41;6.45;;;3.35;;
23747;SDS011;12054;53.662;10.126;2023-04-03T06:18:06;5.68;;;3.50;;
23747;SDS011;12054;53.662;10.126;2023-04-03T06:20:33;7.95;;;3.38;;
23747;SDS011;12054;53.662;10.126;2023-04-03T06:22:58;9.68;;;3.20;;
23747;SDS011;12054;53.662;10.126;2023-04-03T06:25:24;4.32;;;2.70;;
23747;SDS011;12054;53.662;10.126;2023-04-03T06:27:50;3.95;;;2.60;;
23747;SDS011;12054;53.662;10.126;2023-04-03T06:30:15;4.55;;;2.65;;
23747;SDS011;12054;53.662;10.126;2023-04-03T06:32:41;4.28;;;2.25;;
23747;SDS011;12054;53.662;10.126;2023-04-03T06:35:07;4.97;;;2.63;;
23747;SDS011;12054;53.662;10.126;2023-04-03T06:37:33;5.50;;;2.63;;
23747;SDS011;12054;53.662;10.126;2023-04-03T06:39:59;6.18;;;2.88;;
23747;SDS011;12054;53.662;10.126;2023-04-03T06:42:25;3.97;;;2.58;;
23747;SDS011;12054;53.662;10.126;2023-04-03T06:44:51;4.57;;;2.70;;
23747;SDS011;12054;53.662;10.126;2023-04-03T06:47:16;5.07;;;2.85;;
23747;SDS011;12054;53.662;10.126;2023-04-03T06:49:43;5.97;;;2.95;;
23747;SDS011;12054;53.662;10.126;2023-04-03T06:52:09;4.78;;;2.40;;
23747;SDS011;12054;53.662;10.126;2023-04-03T06:54:37;4.30;;;2.33;;
23747;SDS011;12054;53.662;10.126;2023-04-03T06:57:03;6.40;;;2.35;;
23747;SDS011;12054;53.662;10.126;2023-04-03T06:59:28;4.75;;;2.30;;
23747;SDS011;12054;53.662;10.126;2023-04-03T07:01:54;4.68;;;2.20;;
23747;SDS011;12054;53.662;10.126;2023-04-03T07:04:20;7.55;;;2.17;;
23747;SDS011;12054;53.662;10.126;2023-04-03T07:06:46;5.25;;;2.30;;
23747;SDS011;12054;53.662;10.126;2023-04-03T07:09:12;4.72;;;1.80;;
23747;SDS011;12054;53.662;10.126;2023-04-03T07:11:39;3.85;;;2.05;;
23747;SDS011;12054;53.662;10.126;2023-04-03T07:14:04;4.55;;;1.85;;
23747;SDS011;12054;53.662;10.126;2023-04-03T07:16:31;7.30;;;1.90;;
23747;SDS011;12054;53.662;10.126;2023-04-03T07:18:56;6.05;;;1.98;;
23747;SDS011;12054;53.662;10.126;2023-04-03T07:21:22;6.90;;;2.33;;
23747;SDS011;12054;53.662;10.126;2023-04-03T07:23:48;7.25;;;2.60;;
23747;SDS011;12054;53.662;10.126;2023-04-03T07:26:14;7.70;;;2.60;;
23747;SDS011;12054;53.662;10.126;2023-04-03T07:28:39;5.07;;;1.88;;
23747;SDS011;12054;53.662;10.126;2023-04-03T07:31:06;4.93;;;1.90;;
23747;SDS011;12054;53.662;10.126;2023-04-03T07:33:35;4.18;;;1.63;;
23747;SDS011;12054;53.662;10.126;2023-04-03T07:36:02;3.92;;;1.35;;
23747;SDS011;12054;53.662;10.126;2023-04-03T07:38:28;4.45;;;1.60;;
23747;SDS011;12054;53.662;10.126;2023-04-03T07:40:54;4.68;;;1.65;;
23747;SDS011;12054;53.662;10.126;2023-04-03T07:43:19;5.97;;;1.73;;
23747;SDS011;12054;53.662;10.126;2023-04-03T07:45:46;2.38;;;1.10;;
23747;SDS011;12054;53.662;10.126;2023-04-03T07:48:14;2.65;;;1.40;;
23747;SDS011;12054;53.662;10.126;2023-04-03T07:50:42;4.78;;;1.90;;
23747;SDS011;12054;53.662;10.126;2023-04-03T07:53:08;3.80;;;1.67;;
23747;SDS011;12054;53.662;10.126;2023-04-03T07:55:34;3.63;;;1.52;;
23747;SDS011;12054;53.662;10.126;2023-04-03T07:58:07;5.78;;;2.00;;
23747;SDS011;12054;53.662;10.126;2023-04-03T08:00:34;3.50;;;1.40;;
23747;SDS011;12054;53.662;10.126;2023-04-03T08:03:00;3.15;;;1.77;;
23747;SDS011;12054;53.662;10.126;2023-04-03T08:05:26;4.13;;;1.60;;
23747;SDS011;12054;53.662;10.126;2023-04-03T08:07:51;4.45;;;1.50;;
23747;SDS011;12054;53.662;10.126;2023-04-03T08:10:17;4.32;;;1.48;;
23747;SDS011;12054;53.662;10.126;2023-04-03T08:12:45;4.50;;;1.23;;
23747;SDS011;12054;53.662;10.126;2023-04-03T08:15:11;3.65;;;1.08;;
23747;SDS011;12054;53.662;10.126;2023-04-03T08:17:37;4.25;;;1.35;;
23747;SDS011;12054;53.662;10.126;2023-04-03T08:20:04;3.08;;;1.25;;
23747;SDS011;12054;53.662;10.126;2023-04-03T08:22:31;2.70;;;1.40;;
23747;SDS011;12054;53.662;10.126;2023-04-03T08:24:57;1.73;;;0.88;;
23747;SDS011;12054;53.662;10.126;2023-04-03T08:27:22;2.75;;;1.05;;
23747;SDS011;12054;53.662;10.126;2023-04-03T08:29:48;5.78;;;1.20;;
23747;SDS011;12054;53.662;10.126;2023-04-03T08:32:14;5.28;;;1.30;;
23747;SDS011;12054;53.662;10.126;2023-04-03T08:34:39;2.10;;;0.90;;
23747;SDS011;12054;53.662;10.126;2023-04-03T08:37:08;4.70;;;1.20;;
23747;SDS011;12054;53.662;10.126;2023-04-03T08:39:34;3.33;;;1.30;;
23747;SDS011;12054;53.662;10.126;2023-04-03T08:42:01;3.03;;;1.15;;
23747;SDS011;12054;53.662;10.126;2023-04-03T08:44:47;2.58;;;0.90;;
23747;SDS011;12054;53.662;10.126;2023-04-03T08:47:43;2.65;;;0.90;;
23747;SDS011;12054;53.662;10.126;2023-04-03T08:50:17;3.83;;;1.17;;
23747;SDS011;12054;53.662;10.126;2023-04-03T08:52:57;2.55;;;0.90;;
23747;SDS011;12054;53.662;10.126;2023-04-03T09:01:36;4.03;;;1.00;;
23747;SDS011;12054;53.662;10.126;2023-04-03T09:04:09;3.65;;;1.20;;
23747;SDS011;12054;53.662;10.126;2023-04-03T09:06:40;2.33;;;0.85;;
23747;SDS011;12054;53.662;10.126;2023-04-03T09:12:00;2.63;;;0.80;;
23747;SDS011;12054;53.662;10.126;2023-04-03T09:21:14;1.38;;;0.90;;
23747;SDS011;12054;53.662;10.126;2023-04-03T09:26:22;1.98;;;0.85;;
23747;SDS011;12054;53.662;10.126;2023-04-03T09:29:00;1.75;;;0.85;;
23747;SDS011;12054;53.662;10.126;2023-04-03T09:31:35;3.10;;;0.80;;
23747;SDS011;12054;53.662;10.126;2023-04-03T09:34:08;3.50;;;1.00;;
23747;SDS011;12054;53.662;10.126;2023-04-03T09:36:50;0.90;;;0.63;;
23747;SDS011;12054;53.662;10.126;2023-04-03T09:39:25;1.17;;;0.65;;
23747;SDS011;12054;53.662;10.126;2023-04-03T09:42:00;1.25;;;0.88;;
23747;SDS011;12054;53.662;10.126;2023-04-03T09:44:32;1.48;;;0.80;;
23747;SDS011;12054;53.662;10.126;2023-04-03T09:47:00;2.60;;;0.85;;
23747;SDS011;12054;53.662;10.126;2023-04-03T09:52:54;2.35;;;0.85;;
23747;SDS011;12054;53.662;10.126;2023-04-03T09:55:21;1.33;;;0.77;;
23747;SDS011;12054;53.662;10.126;2023-04-03T09:57:53;3.42;;;1.00;;
23747;SDS011;12054;53.662;10.126;2023-04-03T10:00:39;1.90;;;0.80;;
23747;SDS011;12054;53.662;10.126;2023-04-03T10:03:05;2.40;;;0.90;;
23747;SDS011;12054;53.662;10.126;2023-04-03T10:05:46;3.42;;;0.90;;
23747;SDS011;12054;53.662;10.126;2023-04-03T10:10:38;1.63;;;0.77;;
23747;SDS011;12054;53.662;10.126;2023-04-03T10:13:10;0.95;;;0.70;;
23747;SDS011;12054;53.662;10.126;2023-04-03T10:15:50;2.67;;;0.90;;
23747;SDS011;12054;53.662;10.126;2023-04-03T10:20:57;4.53;;;1.02;;
23747;SDS011;12054;53.662;10.126;2023-04-03T10:23:32;3.28;;;1.08;;
23747;SDS011;12054;53.662;10.126;2023-04-03T10:28:39;1.50;;;0.88;;
23747;SDS011;12054;53.662;10.126;2023-04-03T10:31:23;4.07;;;1.00;;
23747;SDS011;12054;53.662;10.126;2023-04-03T10:37:35;2.92;;;1.10;;
23747;SDS011;12054;53.662;10.126;2023-04-03T10:40:02;2.15;;;1.10;;
23747;SDS011;12054;53.662;10.126;2023-04-03T10:42:43;2.90;;;1.10;;
23747;SDS011;12054;53.662;10.126;2023-04-03T10:47:58;2.65;;;0.85;;
23747;SDS011;12054;53.662;10.126;2023-04-03T10:53:08;1.35;;;1.10;;
23747;SDS011;12054;53.662;10.126;2023-04-03T10:56:03;4.45;;;1.27;;
23747;SDS011;12054;53.662;10.126;2023-04-03T10:58:36;2.92;;;1.10;;
23747;SDS011;12054;53.662;10.126;2023-04-03T11:01:18;2.47;;;1.20;;
23747;SDS011;12054;53.662;10.126;2023-04-03T11:03:51;3.45;;;1.10;;
23747;SDS011;12054;53.662;10.126;2023-04-03T11:06:19;2.15;;;1.10;;
23747;SDS011;12054;53.662;10.126;2023-04-03T11:08:50;2.58;;;1.10;;
23747;SDS011;12054;53.662;10.126;2023-04-03T11:11:22;3.67;;;1.20;;
23747;SDS011;12054;53.662;10.126;2023-04-03T11:14:01;3.30;;;0.93;;
23747;SDS011;12054;53.662;10.126;2023-04-03T11:16:33;2.55;;;1.13;;
23747;SDS011;12054;53.662;10.126;2023-04-03T11:19:17;2.40;;;0.82;;
23747;SDS011;12054;53.662;10.126;2023-04-03T11:24:36;2.65;;;0.80;;
23747;SDS011;12054;53.662;10.126;2023-04-03T11:27:05;2.05;;;0.70;;
23747;SDS011;12054;53.662;10.126;2023-04-03T11:29:37;3.40;;;0.90;;
23747;SDS011;12054;53.662;10.126;2023-04-03T11:35:02;1.08;;;0.70;;
23747;SDS011;12054;53.662;10.126;2023-04-03T11:40:05;2.17;;;1.08;;
23747;SDS011;12054;53.662;10.126;2023-04-03T11:46:02;5.20;;;2.45;;
23747;SDS011;12054;53.662;10.126;2023-04-03T11:53:38;6.13;;;2.95;;
23747;SDS011;12054;53.662;10.126;2023-04-03T11:59:15;3.05;;;0.90;;
23747;SDS011;12054;53.662;10.126;2023-04-03T12:01:44;2.72;;;1.27;;
23747;SDS011;12054;53.662;10.126;2023-04-03T12:04:15;1.65;;;0.88;;
23747;SDS011;12054;53.662;10.126;2023-04-03T12:06:50;3.05;;;0.80;;
23747;SDS011;12054;53.662;10.126;2023-04-03T12:11:48;3.30;;;0.93;;
23747;SDS011;12054;53.662;10.126;2023-04-03T12:14:14;1.67;;;0.85;;
23747;SDS011;12054;53.662;10.126;2023-04-03T12:16:43;1.90;;;1.02;;
23747;SDS011;12054;53.662;10.126;2023-04-03T12:26:47;1.85;;;0.95;;
23747;SDS011;12054;53.662;10.126;2023-04-03T12:29:33;2.10;;;0.80;;
23747;SDS011;12054;53.662;10.126;2023-04-03T12:34:57;2.63;;;0.80;;
23747;SDS011;12054;53.662;10.126;2023-04-03T12:48:47;2.53;;;0.80;;
23747;SDS011;12054;53.662;10.126;2023-04-03T12:51:33;1.70;;;0.82;;
23747;SDS011;12054;53.662;10.126;2023-04-03T12:54:12;2.58;;;0.77;;
23747;SDS011;12054;53.662;10.126;2023-04-03T12:56:50;1.15;;;0.50;;
23747;SDS011;12054;53.662;10.126;2023-04-03T12:59:23;2.05;;;0.82;;
23747;SDS011;12054;53.662;10.126;2023-04-03T13:01:55;2.13;;;0.88;;
23747;SDS011;12054;53.662;10.126;2023-04-03T13:04:25;1.58;;;0.63;;
23747;SDS011;12054;53.662;10.126;2023-04-03T13:06:53;1.45;;;0.70;;
23747;SDS011;12054;53.662;10.126;2023-04-03T13:09:29;0.95;;;0.50;;
23747;SDS011;12054;53.662;10.126;2023-04-03T13:12:00;1.17;;;0.52;;
23747;SDS011;12054;53.662;10.126;2023-04-03T13:14:28;2.65;;;0.90;;
23747;SDS011;12054;53.662;10.126;2023-04-03T13:17:12;3.00;;;0.85;;
23747;SDS011;12054;53.662;10.126;2023-04-03T13:19:39;5.07;;;0.90;;
23747;SDS011;12054;53.662;10.126;2023-04-03T13:22:53;3.20;;;0.80;;
23747;SDS011;12054;53.662;10.126;2023-04-03T13:24:58;2.10;;;0.63;;
23747;SDS011;12054;53.662;10.126;2023-04-03T13:27:29;2.13;;;0.80;;
23747;SDS011;12054;53.662;10.126;2023-04-03T13:29:57;1.58;;;0.77;;
23747;SDS011;12054;53.662;10.126;2023-04-03T13:32:24;2.72;;;1.00;;
23747;SDS011;12054;53.662;10.126;2023-04-03T13:34:52;1.00;;;0.80;;
23747;SDS011;12054;53.662;10.126;2023-04-03T13:37:31;1.13;;;0.73;;
23747;SDS011;12054;53.662;10.126;2023-04-03T13:42:28;4.05;;;1.20;;
23747;SDS011;12054;53.662;10.126;2023-04-03T13:45:09;1.88;;;1.00;;
23747;SDS011;12054;53.662;10.126;2023-04-03T13:47:51;2.58;;;0.85;;
23747;SDS011;12054;53.662;10.126;2023-04-03T13:55:26;2.13;;;1.00;;
23747;SDS011;12054;53.662;10.126;2023-04-03T13:57:56;3.10;;;0.80;;
23747;SDS011;12054;53.662;10.126;2023-04-03T14:00:35;3.22;;;1.23;;
23747;SDS011;12054;53.662;10.126;2023-04-03T14:03:02;3.08;;;1.00;;
23747;SDS011;12054;53.662;10.126;2023-04-03T14:05:36;3.25;;;0.70;;
23747;SDS011;12054;53.662;10.126;2023-04-03T14:08:02;2.58;;;0.90;;
23747;SDS011;12054;53.662;10.126;2023-04-03T14:10:27;2.40;;;0.90;;
23747;SDS011;12054;53.662;10.126;2023-04-03T14:12:53;3.75;;;1.27;;
23747;SDS011;12054;53.662;10.126;2023-04-03T14:15:23;3.20;;;1.10;;
23747;SDS011;12054;53.662;10.126;2023-04-03T14:17:52;2.85;;;1.13;;
23747;SDS011;12054;53.662;10.126;2023-04-03T14:20:19;2.90;;;1.05;;
23747;SDS011;12054;53.662;10.126;2023-04-03T14:22:46;1.08;;;0.63;;
23747;SDS011;12054;53.662;10.126;2023-04-03T14:25:13;1.42;;;0.80;;
23747;SDS011;12054;53.662;10.126;2023-04-03T14:27:41;2.67;;;0.98;;
23747;SDS011;12054;53.662;10.126;2023-04-03T14:30:09;2.75;;;1.17;;
23747;SDS011;12054;53.662;10.126;2023-04-03T14:32:39;2.38;;;1.20;;
23747;SDS011;12054;53.662;10.126;2023-04-03T14:35:05;3.10;;;0.93;;
23747;SDS011;12054;53.662;10.126;2023-04-03T14:37:31;2.35;;;1.02;;
23747;SDS011;12054;53.662;10.126;2023-04-03T14:39:58;2.05;;;0.90;;
23747;SDS011;12054;53.662;10.126;2023-04-03T14:42:29;2.38;;;1.13;;
23747;SDS011;12054;53.662;10.126;2023-04-03T14:44:57;3.10;;;1.20;;
23747;SDS011;12054;53.662;10.126;2023-04-03T14:47:25;2.97;;;0.93;;
23747;SDS011;12054;53.662;10.126;2023-04-03T14:49:52;3.17;;;1.10;;
23747;SDS011;12054;53.662;10.126;2023-04-03T14:52:21;3.10;;;1.30;;
23747;SDS011;12054;53.662;10.126;2023-04-03T14:54:49;2.03;;;1.13;;
23747;SDS011;12054;53.662;10.126;2023-04-03T14:57:16;4.88;;;1.30;;
23747;SDS011;12054;53.662;10.126;2023-04-03T14:59:43;2.63;;;0.80;;
23747;SDS011;12054;53.662;10.126;2023-04-03T15:02:22;2.70;;;1.10;;
23747;SDS011;12054;53.662;10.126;2023-04-03T15:04:52;2.45;;;0.95;;
23747;SDS011;12054;53.662;10.126;2023-04-03T15:07:18;4.28;;;1.00;;
23747;SDS011;12054;53.662;10.126;2023-04-03T15:09:43;1.88;;;1.00;;
23747;SDS011;12054;53.662;10.126;2023-04-03T15:12:09;2.13;;;0.90;;
23747;SDS011;12054;53.662;10.126;2023-04-03T15:14:35;3.05;;;1.10;;
23747;SDS011;12054;53.662;10.126;2023-04-03T15:17:01;4.78;;;1.45;;
23747;SDS011;12054;53.662;10.126;2023-04-03T15:19:27;4.50;;;1.40;;
23747;SDS011;12054;53.662;10.126;2023-04-03T15:21:53;4.60;;;1.30;;
23747;SDS011;12054;53.662;10.126;2023-04-03T15:24:18;3.05;;;1.45;;
23747;SDS011;12054;53.662;10.126;2023-04-03T15:26:44;4.38;;;1.40;;
23747;SDS011;12054;53.662;10.126;2023-04-03T15:29:10;2.38;;;1.02;;
23747;SDS011;12054;53.662;10.126;2023-04-03T15:31:35;3.55;;;1.25;;
23747;SDS011;12054;53.662;10.126;2023-04-03T15:34:01;3.13;;;1.10;;
23747;SDS011;12054;53.662;10.126;2023-04-03T15:36:28;3.20;;;0.90;;
23747;SDS011;12054;53.662;10.126;2023-04-03T15:38:54;2.45;;;0.75;;
23747;SDS011;12054;53.662;10.126;2023-04-03T15:41:19;3.13;;;1.25;;
23747;SDS011;12054;53.662;10.126;2023-04-03T15:43:45;3.30;;;1.00;;
23747;SDS011;12054;53.662;10.126;2023-04-03T15:46:11;2.95;;;0.90;;
23747;SDS011;12054;53.662;10.126;2023-04-03T15:48:40;2.90;;;1.00;;
23747;SDS011;12054;53.662;10.126;2023-04-03T15:51:06;2.95;;;1.05;;
23747;SDS011;12054;53.662;10.126;2023-04-03T15:53:32;2.53;;;1.33;;
23747;SDS011;12054;53.662;10.126;2023-04-03T15:55:57;3.83;;;1.23;;
23747;SDS011;12054;53.662;10.126;2023-04-03T15:58:23;3.03;;;0.98;;
23747;SDS011;12054;53.662;10.126;2023-04-03T16:00:48;1.52;;;0.93;;
23747;SDS011;12054;53.662;10.126;2023-04-03T16:03:15;4.03;;;1.10;;
23747;SDS011;12054;53.662;10.126;2023-04-03T16:05:44;5.10;;;1.30;;
23747;SDS011;12054;53.662;10.126;2023-04-03T16:08:09;2.88;;;1.30;;
23747;SDS011;12054;53.662;10.126;2023-04-03T16:10:36;3.03;;;1.30;;
23747;SDS011;12054;53.662;10.126;2023-04-03T16:13:02;2.83;;;1.20;;